Time;durP1;ratioP1;P1;durP2;ratioP2;P2;SDS_P1;SDS_P2;PMS_P1;PMS_P2;Temp;Humidity;BMP_temperature;BMP_pressure;BME280_temperature;BME280_humidity;BME280_pressure;Samples;Min_cycle;Max_cycle;Signal;HPM_P1;HPM_P2
2023/02/21 02:16:07;;;;;;;3.05;2.78;;;9.40;99.90;;;;;;5021520;28;20193;-79
2023/02/21 02:18:45;;;;;;;2.20;2.00;;;9.40;99.90;;;;;;5007267;28;20049;-79
2023/02/21 02:21:21;;;;;;;3.03;2.80;;;9.40;99.90;;;;;;5023894;28;20049;-79
2023/02/21 02:24:07;;;;;;;3.30;3.00;;;9.40;99.90;;;;;;4995501;28;20371;-80
2023/02/21 02:27:11;;;;;;;2.40;2.08;;;9.50;99.90;;;;;;5023324;28;20053;-79
2023/02/21 02:29:53;;;;;;;2.58;2.30;;;9.50;99.90;;;;;;5015670;28;20053;-79
2023/02/21 02:32:43;;;;;;;3.17;2.85;;;9.40;99.90;;;;;;5020705;28;20111;-79
2023/02/21 02:35:12;;;;;;;3.05;2.53;;;9.40;99.90;;;;;;5005742;28;20461;-79
2023/02/21 02:37:54;;;;;;;2.83;2.20;;;9.40;99.90;;;;;;5002689;28;20160;-79
2023/02/21 02:40:28;;;;;;;2.92;2.63;;;9.40;99.90;;;;;;5007735;28;20057;-79
2023/02/21 02:43:07;;;;;;;2.90;2.17;;;9.40;99.90;;;;;;5004079;28;20152;-79
2023/02/21 02:45:37;;;;;;;2.90;2.33;;;9.50;99.90;;;;;;5005154;28;20049;-79
2023/02/21 02:48:18;;;;;;;2.63;2.42;;;9.40;99.90;;;;;;4658124;28;9999803;-78
2023/02/21 02:50:46;;;;;;;3.13;1.92;;;9.40;99.90;;;;;;5004461;28;20140;-80
2023/02/21 02:53:15;;;;;;;2.70;2.30;;;9.40;99.90;;;;;;5022038;28;20037;-79
2023/02/21 02:55:50;;;;;;;2.63;2.42;;;9.50;99.90;;;;;;4990883;28;20489;-79
2023/02/21 02:58:17;;;;;;;2.88;2.55;;;9.40;99.90;;;;;;4976621;28;20148;-79
2023/02/21 03:00:47;;;;;;;2.03;1.85;;;9.40;99.90;;;;;;4979463;28;20057;-79
2023/02/21 03:03:50;;;;;;;2.60;2.17;;;9.50;99.90;;;;;;4973010;28;20626;-80
2023/02/21 03:06:17;;;;;;;2.83;2.10;;;9.40;99.90;;;;;;4976384;28;20141;-79
2023/02/21 03:09:01;;;;;;;3.42;2.47;;;9.40;99.90;;;;;;5003050;28;20060;-80
2023/02/21 03:11:29;;;;;;;2.88;2.58;;;9.40;99.90;;;;;;4990290;28;20512;-79
2023/02/21 03:14:08;;;;;;;2.80;2.58;;;9.40;99.90;;;;;;4984153;28;20052;-79
2023/02/21 03:16:54;;;;;;;3.65;2.85;;;9.40;99.90;;;;;;4986208;28;20045;-79
2023/02/21 03:19:32;;;;;;;3.10;2.65;;;9.40;99.90;;;;;;4999271;28;20041;-79
2023/02/21 03:22:00;;;;;;;3.22;2.92;;;9.40;99.90;;;;;;5006009;28;20060;-78
2023/02/21 03:24:27;;;;;;;2.53;2.30;;;9.40;99.90;;;;;;4984686;28;20078;-79
2023/02/21 03:27:01;;;;;;;2.08;1.88;;;9.40;99.90;;;;;;4978511;28;20050;-79
2023/02/21 03:29:28;;;;;;;2.25;1.90;;;9.40;99.90;;;;;;5022318;28;20144;-79
2023/02/21 03:31:58;;;;;;;1.98;1.80;;;9.40;99.90;;;;;;4968698;28;20045;-78
2023/02/21 03:34:25;;;;;;;2.40;1.83;;;9.50;99.90;;;;;;4985286;28;20414;-79
2023/02/21 03:36:52;;;;;;;1.80;1.58;;;9.50;99.90;;;;;;5019324;28;20171;-78
2023/02/21 03:39:19;;;;;;;2.58;2.20;;;9.50;99.90;;;;;;4984497;28;20253;-79
2023/02/21 03:41:46;;;;;;;2.00;1.80;;;9.50;99.90;;;;;;5004274;28;20050;-79
2023/02/21 03:44:13;;;;;;;2.80;2.35;;;9.50;99.90;;;;;;4970069;28;20077;-78
2023/02/21 03:46:40;;;;;;;2.85;2.60;;;9.50;99.90;;;;;;4981636;28;20049;-79
2023/02/21 03:49:07;;;;;;;2.58;2.20;;;9.50;99.90;;;;;;5015488;28;20093;-78
2023/02/21 03:51:34;;;;;;;2.65;2.20;;;9.40;99.90;;;;;;4992212;28;20140;-79
2023/02/21 03:54:01;;;;;;;2.97;2.55;;;9.50;99.90;;;;;;4988675;28;20065;-79
2023/02/21 03:56:28;;;;;;;3.42;3.13;;;9.50;99.90;;;;;;4989040;28;20082;-79
2023/02/21 03:59:07;;;;;;;4.47;2.95;;;9.40;99.90;;;;;;4976178;28;20079;-78
2023/02/21 04:01:34;;;;;;;2.55;2.33;;;9.40;99.90;;;;;;4975544;28;20047;-79
2023/02/21 04:04:01;;;;;;;2.55;2.05;;;9.40;99.90;;;;;;4982405;28;20054;-79
2023/02/21 04:06:28;;;;;;;2.47;2.28;;;9.50;99.90;;;;;;4992566;28;20486;-79
2023/02/21 04:08:55;;;;;;;1.95;1.75;;;9.40;99.90;;;;;;4981651;28;20082;-78
2023/02/21 04:11:22;;;;;;;2.08;1.88;;;9.50;99.90;;;;;;4967683;28;20132;-79
2023/02/21 04:13:50;;;;;;;1.88;1.77;;;9.50;99.90;;;;;;4990930;28;20062;-79
2023/02/21 04:16:16;;;;;;;1.80;1.70;;;9.50;99.90;;;;;;4958962;28;20054;-78
2023/02/21 04:18:43;;;;;;;1.55;1.35;;;9.50;99.90;;;;;;4989501;28;20145;-78
2023/02/21 04:21:10;;;;;;;2.35;2.00;;;9.50;99.90;;;;;;5005504;28;20053;-78
2023/02/21 04:23:37;;;;;;;1.80;1.63;;;9.50;99.90;;;;;;4976107;28;20153;-79
2023/02/21 04:26:04;;;;;;;1.90;1.60;;;9.50;99.90;;;;;;4977787;28;20142;-78
2023/02/21 04:28:31;;;;;;;1.50;1.40;;;9.50;99.90;;;;;;4989560;28;20046;-78
2023/02/21 04:30:58;;;;;;;1.65;1.13;;;9.50;99.90;;;;;;4956196;28;20051;-78
2023/02/21 04:33:24;;;;;;;1.60;1.50;;;9.50;99.90;;;;;;4974197;28;20046;-78
2023/02/21 04:35:51;;;;;;;1.48;1.33;;;9.50;99.90;;;;;;4989927;28;20133;-78
2023/02/21 04:38:18;;;;;;;1.40;1.30;;;9.50;99.90;;;;;;4988064;28;20124;-79
2023/02/21 04:40:45;;;;;;;2.10;1.90;;;9.40;99.90;;;;;;4977678;28;20042;-78
2023/02/21 04:43:12;;;;;;;1.90;1.67;;;9.40;99.90;;;;;;4961946;28;20409;-79
2023/02/21 04:45:39;;;;;;;2.25;2.00;;;9.40;99.90;;;;;;4986278;28;20752;-78
2023/02/21 04:48:06;;;;;;;2.03;1.70;;;9.40;99.90;;;;;;4960888;28;20050;-79
2023/02/21 04:50:33;;;;;;;2.13;1.83;;;9.40;99.90;;;;;;4958762;28;20052;-79
2023/02/21 04:53:00;;;;;;;2.67;2.30;;;9.40;99.90;;;;;;4990421;28;20137;-79
2023/02/21 04:55:27;;;;;;;2.25;1.80;;;9.40;99.90;;;;;;5012567;28;20406;-79
2023/02/21 04:57:54;;;;;;;2.00;1.67;;;9.40;99.90;;;;;;4992174;28;20139;-79
2023/02/21 05:00:22;;;;;;;2.42;1.73;;;9.30;99.90;;;;;;5013905;28;20165;-79
2023/02/21 05:02:49;;;;;;;1.98;1.67;;;9.40;99.90;;;;;;4976430;28;20064;-79
2023/02/21 05:05:16;;;;;;;2.20;1.95;;;9.40;99.90;;;;;;4968655;28;20275;-79
2023/02/21 05:07:43;;;;;;;1.52;1.40;;;9.30;99.90;;;;;;4984761;28;20065;-78
2023/02/21 05:10:10;;;;;;;1.17;1.08;;;9.40;99.90;;;;;;4996189;28;20046;-78
2023/02/21 05:12:40;;;;;;;2.00;1.40;;;9.40;99.90;;;;;;5017271;28;20132;-79
2023/02/21 05:15:07;;;;;;;1.30;1.15;;;9.40;99.90;;;;;;4971310;28;20137;-79
2023/02/21 05:17:34;;;;;;;1.83;1.48;;;9.40;99.90;;;;;;4970592;28;20049;-78
2023/02/21 05:20:01;;;;;;;1.85;1.58;;;9.40;99.90;;;;;;4981704;28;20047;-78
2023/02/21 05:22:28;;;;;;;1.48;1.10;;;9.30;99.90;;;;;;4980548;28;20050;-78
2023/02/21 05:24:55;;;;;;;1.58;1.17;;;9.30;99.90;;;;;;4981459;28;20132;-78
2023/02/21 05:27:22;;;;;;;1.25;1.10;;;9.30;99.90;;;;;;5001117;28;20052;-78
2023/02/21 05:29:49;;;;;;;2.17;1.73;;;9.30;99.90;;;;;;4998047;28;20054;-78
2023/02/21 05:32:17;;;;;;;1.70;1.50;;;9.30;99.90;;;;;;4982920;28;20050;-78
2023/02/21 05:34:45;;;;;;;1.80;1.65;;;9.30;99.90;;;;;;4968947;28;20050;-78
2023/02/21 05:37:13;;;;;;;1.40;1.23;;;9.30;99.90;;;;;;4995957;28;20114;-80
2023/02/21 05:39:40;;;;;;;1.65;1.45;;;9.40;99.90;;;;;;4983129;28;20062;-79
2023/02/21 05:42:07;;;;;;;1.35;1.25;;;9.40;99.90;;;;;;4998478;28;20141;-79
2023/02/21 05:44:34;;;;;;;1.73;1.60;;;9.40;99.90;;;;;;4968678;28;20052;-79
2023/02/21 05:47:01;;;;;;;1.42;1.10;;;9.30;99.90;;;;;;4965638;28;20060;-79
2023/02/21 05:49:28;;;;;;;1.52;1.40;;;9.40;99.90;;;;;;4977798;28;20061;-79
2023/02/21 05:51:55;;;;;;;1.27;1.10;;;9.40;99.90;;;;;;4983488;28;20389;-80
2023/02/21 05:54:22;;;;;;;1.27;1.15;;;9.40;99.90;;;;;;4967616;28;20054;-79
2023/02/21 05:56:50;;;;;;;1.45;1.35;;;9.40;99.90;;;;;;4980222;28;20058;-79
2023/02/21 05:59:18;;;;;;;1.98;1.77;;;9.30;99.90;;;;;;4976961;28;20046;-79
2023/02/21 06:01:46;;;;;;;1.85;1.55;;;9.30;99.90;;;;;;4957074;28;20050;-79
2023/02/21 06:04:13;;;;;;;2.00;1.70;;;9.30;99.90;;;;;;4971099;28;20058;-79
2023/02/21 06:06:40;;;;;;;1.88;1.73;;;9.20;99.90;;;;;;4972033;28;20509;-81
2023/02/21 06:09:07;;;;;;;2.45;2.17;;;9.20;99.90;;;;;;4979618;28;20055;-82
2023/02/21 06:11:36;;;;;;;2.70;2.40;;;9.20;99.90;;;;;;4979062;28;20226;-79
2023/02/21 06:14:04;;;;;;;2.05;1.80;;;9.20;99.90;;;;;;4963713;28;20153;-79
2023/02/21 06:16:33;;;;;;;2.72;2.53;;;9.20;99.90;;;;;;4974000;28;20141;-79
2023/02/21 06:19:00;;;;;;;2.60;2.40;;;9.20;99.90;;;;;;4990260;28;20176;-78
2023/02/21 06:21:27;;;;;;;2.10;1.88;;;9.10;99.90;;;;;;4981493;28;20046;-79
2023/02/21 06:23:54;;;;;;;1.90;1.70;;;9.20;99.90;;;;;;4971553;28;20445;-79
2023/02/21 06:26:21;;;;;;;1.85;1.70;;;9.20;99.90;;;;;;4946693;28;20038;-78
2023/02/21 06:28:48;;;;;;;2.08;1.63;;;9.20;99.90;;;;;;4963240;28;20057;-78
2023/02/21 06:31:16;;;;;;;1.25;1.15;;;9.20;99.90;;;;;;4986156;28;20133;-79
2023/02/21 06:33:43;;;;;;;1.70;1.33;;;9.10;99.90;;;;;;4978832;28;20047;-79
2023/02/21 06:36:15;;;;;;;2.20;1.98;;;9.20;99.90;;;;;;4979930;28;20050;-79
2023/02/21 06:38:49;;;;;;;2.20;2.00;;;9.20;99.90;;;;;;4996051;28;20517;-79
2023/02/21 06:41:17;;;;;;;1.88;1.48;;;9.10;99.90;;;;;;4991164;28;20196;-79
2023/02/21 06:43:44;;;;;;;1.73;1.38;;;9.10;99.90;;;;;;5007071;28;20054;-80
2023/02/21 06:46:21;;;;;;;1.77;1.48;;;9.10;99.90;;;;;;4974498;28;20710;-80
2023/02/21 06:48:49;;;;;;;1.30;1.20;;;9.10;99.90;;;;;;4972421;28;20153;-79
2023/02/21 06:51:16;;;;;;;1.27;1.17;;;9.20;99.90;;;;;;4958392;28;20141;-78
2023/02/21 06:53:44;;;;;;;1.20;1.00;;;9.20;99.90;;;;;;4959663;28;20058;-79
2023/02/21 06:56:11;;;;;;;1.50;1.30;;;9.20;99.90;;;;;;4956857;28;20503;-80
2023/02/21 06:58:38;;;;;;;1.33;1.23;;;9.10;99.90;;;;;;4957472;28;20050;-78
2023/02/21 07:01:05;;;;;;;1.55;1.45;;;9.10;99.90;;;;;;4970605;28;20050;-79
2023/02/21 07:03:32;;;;;;;1.40;1.00;;;9.20;99.90;;;;;;4974815;28;20428;-80
2023/02/21 07:06:00;;;;;;;1.27;1.05;;;9.20;99.90;;;;;;4985480;28;20566;-79
2023/02/21 07:08:27;;;;;;;1.13;1.00;;;9.20;99.90;;;;;;4974915;28;20555;-79
2023/02/21 07:10:54;;;;;;;1.52;1.00;;;9.20;99.90;;;;;;4956176;28;20128;-78
2023/02/21 07:13:21;;;;;;;1.23;1.10;;;9.20;99.90;;;;;;4961215;28;20099;-79
2023/02/21 07:15:48;;;;;;;1.10;0.98;;;9.30;99.90;;;;;;4975130;28;20046;-79
2023/02/21 07:18:15;;;;;;;1.30;1.20;;;9.20;99.90;;;;;;4975747;28;20046;-80
2023/02/21 07:20:42;;;;;;;1.10;1.00;;;9.20;99.90;;;;;;4974318;28;20057;-80
2023/02/21 07:23:09;;;;;;;1.90;1.33;;;9.20;99.90;;;;;;4974750;28;20058;-79
2023/02/21 07:25:37;;;;;;;1.70;1.33;;;9.30;99.90;;;;;;4976231;28;20406;-80
2023/02/21 07:28:04;;;;;;;2.28;1.48;;;9.30;99.90;;;;;;4972931;28;20137;-80
2023/02/21 07:30:30;;;;;;;1.35;1.10;;;9.30;99.90;;;;;;4940644;28;20062;-80
2023/02/21 07:32:58;;;;;;;1.48;1.17;;;9.30;99.90;;;;;;4967923;28;20125;-80
2023/02/21 07:35:25;;;;;;;1.00;0.90;;;9.30;99.90;;;;;;4974231;28;20134;-82
2023/02/21 07:37:52;;;;;;;1.58;1.40;;;9.30;99.90;;;;;;4956448;28;20353;-82
2023/02/21 07:40:19;;;;;;;1.98;1.75;;;9.30;99.90;;;;;;4959089;28;20447;-82
2023/02/21 07:42:46;;;;;;;1.67;1.30;;;9.30;99.90;;;;;;4941741;28;20110;-81
2023/02/21 07:45:14;;;;;;;1.63;1.50;;;9.30;99.90;;;;;;4964219;28;20062;-82
2023/02/21 07:47:42;;;;;;;1.40;1.30;;;9.30;99.90;;;;;;4980869;28;20112;-82
2023/02/21 07:50:11;;;;;;;2.22;1.17;;;9.30;99.90;;;;;;4963588;28;20046;-83
2023/02/21 07:52:38;;;;;;;1.50;1.20;;;9.40;99.90;;;;;;5001399;28;20054;-82
2023/02/21 07:55:05;;;;;;;1.55;1.25;;;9.40;99.90;;;;;;5019402;28;20049;-81
2023/02/21 07:57:32;;;;;;;2.28;1.88;;;9.40;99.90;;;;;;4987928;28;20064;-81
2023/02/21 07:59:59;;;;;;;1.50;1.25;;;9.50;99.90;;;;;;4989950;28;20058;-80
2023/02/21 08:02:26;;;;;;;1.38;1.20;;;9.50;99.90;;;;;;5021301;28;20063;-82
2023/02/21 08:04:53;;;;;;;1.27;1.17;;;9.60;99.90;;;;;;4986182;28;20150;-81
2023/02/21 08:07:20;;;;;;;1.20;1.10;;;9.60;99.90;;;;;;4985223;28;20065;-81
2023/02/21 08:09:47;;;;;;;1.15;1.05;;;9.60;99.90;;;;;;4992240;28;20116;-84
2023/02/21 08:12:15;;;;;;;1.40;1.30;;;9.60;99.90;;;;;;4970259;28;20449;-83
2023/02/21 08:14:42;;;;;;;1.40;1.20;;;9.60;99.90;;;;;;4988675;28;20072;-91
2023/02/21 08:17:09;;;;;;;1.33;1.20;;;9.60;99.90;;;;;;4971016;28;20067;-77
2023/02/21 08:19:36;;;;;;;1.45;1.20;;;9.70;99.90;;;;;;4992070;28;20054;-85
2023/02/21 08:22:03;;;;;;;1.70;1.13;;;9.70;99.90;;;;;;5004523;28;20302;-85
2023/02/21 08:24:30;;;;;;;1.30;1.10;;;9.70;99.90;;;;;;4987672;28;20681;-84
2023/02/21 08:26:56;;;;;;;1.25;1.10;;;9.70;99.90;;;;;;4985830;28;20054;-83
2023/02/21 08:29:23;;;;;;;1.35;1.25;;;9.70;99.90;;;;;;4990454;28;20679;-82
2023/02/21 08:31:50;;;;;;;1.35;1.25;;;9.80;99.90;;;;;;4981964;28;20081;-82
2023/02/21 08:34:17;;;;;;;1.50;1.40;;;9.80;99.90;;;;;;4974430;28;20061;-83
2023/02/21 08:36:44;;;;;;;1.50;1.40;;;9.80;99.90;;;;;;4970317;28;20050;-83
2023/02/21 08:39:11;;;;;;;1.40;1.30;;;9.80;99.90;;;;;;4990504;28;20597;-82
2023/02/21 08:41:45;;;;;;;1.98;1.60;;;9.80;99.90;;;;;;4968302;28;20144;-82
2023/02/21 08:44:15;;;;;;;1.77;1.30;;;9.90;99.90;;;;;;4973306;28;20152;-83
2023/02/21 08:46:41;;;;;;;2.22;1.70;;;9.80;99.90;;;;;;4958606;28;20532;-83
2023/02/21 08:49:08;;;;;;;1.88;1.48;;;9.80;99.90;;;;;;4957555;28;20312;-83
2023/02/21 08:51:36;;;;;;;1.98;1.77;;;9.80;99.90;;;;;;4957724;28;20162;-83
2023/02/21 08:54:03;;;;;;;1.88;1.52;;;9.80;99.90;;;;;;4968135;28;20069;-82
2023/02/21 08:56:30;;;;;;;2.00;1.50;;;9.80;99.90;;;;;;4985130;28;20057;-83
2023/02/21 08:58:57;;;;;;;1.80;1.60;;;9.80;99.90;;;;;;4967631;28;20085;-83
2023/02/21 09:01:29;;;;;;;1.80;1.60;;;9.90;99.90;;;;;;4958448;28;20066;-83
2023/02/21 09:03:55;;;;;;;1.58;1.35;;;10.00;99.90;;;;;;4986337;28;20053;-83
2023/02/21 09:06:22;;;;;;;1.85;1.55;;;10.10;99.90;;;;;;4950596;28;20090;-83
2023/02/21 09:08:49;;;;;;;1.63;1.52;;;10.10;99.90;;;;;;4999057;28;20059;-83
2023/02/21 09:11:16;;;;;;;1.63;1.33;;;10.20;99.90;;;;;;4963500;28;20146;-82
2023/02/21 09:13:43;;;;;;;1.23;1.13;;;10.30;99.90;;;;;;4997724;28;20540;-83
2023/02/21 09:16:10;;;;;;;1.35;1.25;;;10.30;99.90;;;;;;4981775;28;20397;-83
2023/02/21 09:18:37;;;;;;;1.63;1.30;;;10.40;99.90;;;;;;4972177;28;20062;-83
2023/02/21 09:21:05;;;;;;;2.00;1.52;;;10.50;99.90;;;;;;4954130;28;20129;-83
2023/02/21 09:23:32;;;;;;;1.90;1.60;;;10.50;99.90;;;;;;4986296;28;20231;-84
2023/02/21 09:25:59;;;;;;;1.45;1.15;;;10.60;99.90;;;;;;4995398;28;20413;-84
2023/02/21 09:28:28;;;;;;;1.65;1.30;;;10.60;99.90;;;;;;4979859;28;20149;-83
2023/02/21 09:30:55;;;;;;;1.73;1.42;;;10.70;99.90;;;;;;4966899;28;20050;-83
2023/02/21 09:33:22;;;;;;;2.15;1.70;;;10.50;99.90;;;;;;4970157;28;20113;-83
2023/02/21 09:35:52;;;;;;;1.75;1.63;;;10.50;99.90;;;;;;4952958;28;20340;-83
2023/02/21 09:38:19;;;;;;;1.88;1.70;;;10.50;99.90;;;;;;4965557;28;20050;-83
2023/02/21 09:41:04;;;;;;;1.85;1.67;;;10.60;99.90;;;;;;4996211;28;20105;-84
2023/02/21 09:43:39;;;;;;;1.80;1.70;;;10.60;99.90;;;;;;4990040;28;20129;-84
2023/02/21 09:46:32;;;;;;;2.10;1.60;;;10.70;99.90;;;;;;4980499;28;20055;-83
2023/02/21 09:49:00;;;;;;;2.03;1.80;;;10.70;99.90;;;;;;4972103;28;20055;-83
2023/02/21 09:51:27;;;;;;;2.30;1.67;;;10.70;99.90;;;;;;4958353;28;20118;-83
2023/02/21 09:53:55;;;;;;;1.52;1.40;;;10.80;99.90;;;;;;4966898;28;20050;-84
2023/02/21 09:56:37;;;;;;;1.80;1.60;;;10.90;99.90;;;;;;4966466;28;20142;-83
2023/02/21 09:59:11;;;;;;;2.15;1.95;;;10.90;99.90;;;;;;4989337;28;20053;-83
2023/02/21 10:02:18;;;;;;;1.98;1.70;;;10.90;99.90;;;;;;4971014;28;20156;-82
2023/02/21 10:05:01;;;;;;;1.60;1.50;;;10.90;99.90;;;;;;4980731;28;20459;-83
2023/02/21 10:08:10;;;;;;;1.90;1.60;;;11.10;99.90;;;;;;4971668;28;20046;-82
2023/02/21 10:10:44;;;;;;;2.03;1.55;;;11.20;99.90;;;;;;4971006;28;20046;-84
2023/02/21 10:13:39;;;;;;;2.45;2.10;;;11.30;99.90;;;;;;4972732;28;20629;-84
2023/02/21 10:16:16;;;;;;;2.40;1.90;;;11.10;99.90;;;;;;4984890;28;20565;-83
2023/02/21 10:19:10;;;;;;;2.20;2.00;;;11.20;99.90;;;;;;4990665;28;20580;-83
2023/02/21 10:21:39;;;;;;;2.55;2.10;;;11.30;99.90;;;;;;4941892;28;20139;-81
2023/02/21 10:24:21;;;;;;;2.13;1.92;;;11.30;99.90;;;;;;4955582;28;20493;-83
2023/02/21 10:26:57;;;;;;;2.30;1.98;;;11.30;99.90;;;;;;4968073;28;20125;-83
2023/02/21 10:29:29;;;;;;;2.58;1.95;;;11.20;99.90;;;;;;4973052;28;20046;-83
2023/02/21 10:31:58;;;;;;;2.28;1.98;;;11.10;99.90;;;;;;4941807;28;20497;-83
2023/02/21 10:34:27;;;;;;;3.20;2.65;;;11.10;99.90;;;;;;4971883;28;20042;-82
2023/02/21 10:36:54;;;;;;;2.72;2.50;;;11.20;99.90;;;;;;4969635;28;20629;-76
2023/02/21 10:39:26;;;;;;;2.53;2.05;;;11.20;99.90;;;;;;4967118;28;20054;-77
2023/02/21 10:41:52;;;;;;;2.30;2.05;;;11.30;99.90;;;;;;4980069;28;20055;-77
2023/02/21 10:44:31;;;;;;;2.53;2.33;;;11.40;99.90;;;;;;4988353;28;20074;-83
2023/02/21 10:47:01;;;;;;;2.05;1.85;;;11.50;99.90;;;;;;4967695;28;20161;-83
2023/02/21 10:49:32;;;;;;;3.05;2.53;;;11.60;99.90;;;;;;4962914;28;20046;-82
2023/02/21 10:52:12;;;;;;;2.83;2.50;;;11.50;99.90;;;;;;4992163;28;20062;-83
2023/02/21 10:54:39;;;;;;;3.95;2.30;;;11.40;99.90;;;;;;4989417;28;20385;-83
2023/02/21 10:57:07;;;;;;;2.25;1.90;;;11.30;99.90;;;;;;4990929;28;20049;-83
2023/02/21 10:59:36;;;;;;;2.05;1.77;;;11.40;99.90;;;;;;4974433;28;20050;-83
2023/02/21 11:02:21;;;;;;;3.58;2.50;;;11.50;99.90;;;;;;5008081;28;20054;-83
2023/02/21 11:04:48;;;;;;;2.47;2.00;;;11.60;99.90;;;;;;4974161;28;20472;-83
2023/02/21 11:07:15;;;;;;;2.55;2.13;;;11.70;99.90;;;;;;4978750;28;20053;-83
2023/02/21 11:09:45;;;;;;;2.35;2.10;;;11.80;99.90;;;;;;4991677;28;20518;-84
2023/02/21 11:12:16;;;;;;;2.75;2.55;;;11.80;99.90;;;;;;4990659;28;20081;-83
2023/02/21 11:15:01;;;;;;;2.97;2.67;;;11.60;99.90;;;;;;4991915;28;20140;-83
2023/02/21 11:17:32;;;;;;;3.50;2.97;;;11.50;99.90;;;;;;4976378;28;20058;-83
2023/02/21 11:20:15;;;;;;;3.88;3.40;;;11.50;99.90;;;;;;4969643;28;20050;-84
2023/02/21 11:22:43;;;;;;;4.10;3.70;;;11.40;99.90;;;;;;4992029;28;20072;-83
2023/02/21 11:25:27;;;;;;;4.47;3.50;;;11.40;99.90;;;;;;4961068;28;20078;-83
2023/02/21 11:28:12;;;;;;;4.35;3.95;;;11.40;99.90;;;;;;5004340;28;20299;-83
2023/02/21 11:31:03;;;;;;;4.60;4.03;;;11.40;99.90;;;;;;5003869;28;20053;-83
2023/02/21 11:33:29;;;;;;;5.38;4.88;;;11.50;99.90;;;;;;4969041;28;20085;-83
2023/02/21 11:36:12;;;;;;;5.35;4.85;;;11.50;99.90;;;;;;4988100;28;20450;-82
2023/02/21 11:38:44;;;;;;;5.75;5.15;;;11.50;99.90;;;;;;4981295;28;20062;-82
2023/02/21 11:41:27;;;;;;;5.88;5.28;;;11.60;99.90;;;;;;5008024;28;20054;-83
2023/02/21 11:43:54;;;;;;;5.82;5.15;;;11.60;99.90;;;;;;4973719;28;20085;-84
2023/02/21 11:46:41;;;;;;;5.72;5.13;;;11.40;99.90;;;;;;4991044;28;20053;-84
2023/02/21 11:49:25;;;;;;;5.18;4.68;;;11.40;99.90;;;;;;4989410;28;20476;-84
2023/02/21 11:51:56;;;;;;;4.70;4.18;;;11.40;99.90;;;;;;4961343;28;20066;-84
2023/02/21 11:54:25;;;;;;;4.85;4.30;;;11.50;99.90;;;;;;4975094;28;20397;-83
2023/02/21 11:57:03;;;;;;;4.88;4.38;;;11.60;99.90;;;;;;4966001;28;20141;-84
2023/02/21 12:00:01;;;;;;;4.72;4.25;;;11.70;99.90;;;;;;4969924;28;20054;-83
2023/02/21 12:02:44;;;;;;;4.82;4.35;;;11.70;99.90;;;;;;4974422;28;20058;-84
2023/02/21 12:05:34;;;;;;;5.20;4.25;;;11.70;99.90;;;;;;4970551;28;20054;-84
2023/02/21 12:08:22;;;;;;;4.53;3.80;;;11.80;99.90;;;;;;4988689;28;20398;-84
2023/02/21 12:11:15;;;;;;;3.60;3.30;;;11.70;99.90;;;;;;4984095;28;20054;-83
2023/02/21 12:13:52;;;;;;;3.75;3.10;;;11.80;99.90;;;;;;4970503;28;20046;-84
2023/02/21 12:16:37;;;;;;;3.47;3.10;;;11.90;99.90;;;;;;4971678;28;20113;-84
2023/02/21 12:19:38;;;;;;;3.97;3.58;;;11.90;99.90;;;;;;4985614;28;20131;-84
2023/02/21 12:22:27;;;;;;;4.65;3.78;;;11.80;99.90;;;;;;4999844;28;20157;-82
2023/02/21 12:25:12;;;;;;;3.72;3.10;;;11.80;99.90;;;;;;4968877;28;20194;-84
2023/02/21 12:28:11;;;;;;;3.75;3.17;;;11.90;99.90;;;;;;4971803;28;20050;-84
2023/02/21 12:30:54;;;;;;;3.80;3.05;;;11.80;99.90;;;;;;4921677;28;20054;-84
2023/02/21 12:33:42;;;;;;;3.17;2.58;;;11.80;99.90;;;;;;4972190;28;20097;-83
2023/02/21 12:36:27;;;;;;;3.00;2.28;;;11.80;99.90;;;;;;4970101;28;20376;-84
2023/02/21 12:39:24;;;;;;;2.83;2.53;;;12.00;99.90;;;;;;4971457;28;20058;-84
2023/02/21 12:42:15;;;;;;;3.10;2.50;;;11.90;99.90;;;;;;4970093;28;20054;-84
2023/02/21 12:45:08;;;;;;;3.53;3.22;;;11.90;99.90;;;;;;4967398;28;20130;-83
2023/02/21 12:47:48;;;;;;;2.40;2.20;;;11.90;99.90;;;;;;4967222;28;20054;-83
2023/02/21 12:50:26;;;;;;;3.90;2.50;;;11.80;99.90;;;;;;4967040;28;20054;-84
2023/02/21 12:53:01;;;;;;;3.15;2.70;;;11.70;99.90;;;;;;4957873;28;20225;-84
2023/02/21 12:55:34;;;;;;;3.47;3.10;;;11.50;99.90;;;;;;4963476;28;20058;-84
2023/02/21 12:58:35;;;;;;;4.63;4.18;;;11.30;99.90;;;;;;4968359;28;20109;-84
2023/02/21 13:01:14;;;;;;;4.28;3.67;;;11.10;99.90;;;;;;4969255;28;20161;-84
2023/02/21 13:04:19;;;;;;;3.33;3.03;;;10.90;99.90;;;;;;4973232;28;20157;-83
2023/02/21 13:07:24;;;;;;;3.35;2.80;;;11.00;99.90;;;;;;4967338;28;20055;-84
2023/02/21 13:09:56;;;;;;;3.55;2.90;;;11.10;99.90;;;;;;4973849;28;20424;-79
2023/02/21 13:13:04;;;;;;;3.65;2.83;;;11.20;99.90;;;;;;4985545;28;20647;-81
2023/02/21 13:15:31;;;;;;;2.97;2.65;;;11.20;99.90;;;;;;4934077;28;20054;-82
2023/02/21 13:18:15;;;;;;;3.42;3.03;;;11.30;99.90;;;;;;4953784;28;20066;-82
2023/02/21 13:21:06;;;;;;;2.92;2.60;;;11.30;99.90;;;;;;4986382;28;20149;-82
2023/02/21 13:24:10;;;;;;;3.63;3.08;;;11.30;99.90;;;;;;4960956;28;20140;-81
2023/02/21 13:26:53;;;;;;;4.00;3.33;;;11.50;99.90;;;;;;4971914;28;20401;-81
2023/02/21 13:29:34;;;;;;;3.20;2.90;;;11.40;99.90;;;;;;4990319;28;20133;-81
2023/02/21 13:32:07;;;;;;;;;;;11.20;99.90;;;;;;4955364;28;20271;-81
2023/02/21 13:34:40;;;;;;;4.53;3.13;;;11.00;99.90;;;;;;4971174;28;19997;-81
2023/02/21 13:37:43;;;;;;;5.05;3.65;;;11.00;99.90;;;;;;4975726;28;20050;-80
2023/02/21 13:40:22;;;;;;;3.90;3.17;;;11.00;99.90;;;;;;4970293;28;20345;-81
2023/02/21 13:42:58;;;;;;;4.10;3.70;;;11.00;99.90;;;;;;4974141;28;20054;-81
2023/02/21 13:45:25;;;;;;;3.33;2.85;;;11.10;99.90;;;;;;4983534;28;20150;-81
2023/02/21 13:47:52;;;;;;;3.30;3.00;;;11.20;99.90;;;;;;4961443;28;20059;-81
2023/02/21 13:50:38;;;;;;;3.53;2.90;;;11.20;99.90;;;;;;4972424;28;20440;-81
2023/02/21 13:53:15;;;;;;;3.65;3.08;;;11.40;99.90;;;;;;5013434;28;20093;-81
2023/02/21 13:56:07;;;;;;;3.55;3.03;;;11.40;99.90;;;;;;4992816;28;20061;-81
2023/02/21 13:58:47;;;;;;;4.70;3.83;;;11.40;99.90;;;;;;5012539;28;20060;-81
2023/02/21 14:01:21;;;;;;;3.72;3.28;;;11.30;99.90;;;;;;4981495;28;20127;-81
2023/02/21 14:03:49;;;;;;;3.75;2.90;;;11.20;99.90;;;;;;4982533;28;20514;-81
2023/02/21 14:06:27;;;;;;;4.07;3.55;;;11.10;99.90;;;;;;4970729;28;20064;-81
2023/02/21 14:08:57;;;;;;;5.47;3.60;;;11.10;99.90;;;;;;5011653;28;20058;-81
2023/02/21 14:11:31;;;;;;;3.58;3.25;;;11.10;99.90;;;;;;4981814;28;20535;-82
2023/02/21 14:13:58;;;;;;;;;;;11.00;99.90;;;;;;5001852;28;20128;-82
2023/02/21 14:16:34;;;;;;;3.63;3.08;;;11.10;99.90;;;;;;4983291;28;20107;-82
2023/02/21 14:19:04;;;;;;;3.78;3.15;;;10.90;99.90;;;;;;5009451;28;20443;-82
2023/02/21 14:21:40;;;;;;;4.60;3.78;;;10.90;99.90;;;;;;4998057;28;20461;-81
2023/02/21 14:24:18;;;;;;;3.65;3.03;;;10.90;99.90;;;;;;5011681;28;20053;-82
2023/02/21 14:26:48;;;;;;;4.20;3.50;;;10.80;99.90;;;;;;4994258;28;20059;-81
2023/02/21 14:29:31;;;;;;;3.47;3.17;;;10.80;99.90;;;;;;4994908;28;20049;-82
2023/02/21 14:32:01;;;;;;;3.38;2.63;;;10.90;99.90;;;;;;4981926;28;20461;-81
2023/02/21 14:34:47;;;;;;;4.22;3.40;;;11.00;99.90;;;;;;4998118;28;20469;-81
2023/02/21 14:37:36;;;;;;;4.20;3.50;;;10.90;99.90;;;;;;5010153;28;20505;-81
2023/02/21 14:40:09;;;;;;;4.07;3.35;;;10.70;99.90;;;;;;5009706;28;20081;-81
2023/02/21 14:43:01;;;;;;;;;;;10.60;99.90;;;;;;4995829;28;20049;-81
2023/02/21 14:45:59;;;;;;;3.28;2.60;;;10.70;99.90;;;;;;5009245;28;19928;-82
2023/02/21 14:48:57;;;;;;;3.08;2.25;;;10.80;99.90;;;;;;5006010;28;20106;-81
2023/02/21 14:51:49;;;;;;;3.28;2.35;;;10.90;99.90;;;;;;5015176;28;20071;-82
2023/02/21 14:54:50;;;;;;;3.78;2.53;;;11.00;99.90;;;;;;5008886;28;20196;-81
2023/02/21 14:57:17;;;;;;;3.42;2.35;;;11.00;99.90;;;;;;5004471;28;20054;-82
2023/02/21 15:00:10;;;;;;;2.72;2.40;;;11.00;99.90;;;;;;4993340;28;20037;-81
2023/02/21 15:03:30;;;;;;;3.25;2.38;;;10.90;99.90;;;;;;4998829;28;20721;-82
2023/02/21 15:05:59;;;;;;;3.10;2.40;;;10.90;99.90;;;;;;4940371;28;20055;-82
2023/02/21 15:08:29;;;;;;;2.65;2.05;;;10.90;99.90;;;;;;4992778;28;20045;-82
2023/02/21 15:10:59;;;;;;;4.05;2.40;;;10.90;99.90;;;;;;4993210;28;20049;-77
2023/02/21 15:13:30;;;;;;;3.25;2.50;;;10.90;99.90;;;;;;4965533;28;20468;-78
2023/02/21 15:16:08;;;;;;;2.83;2.15;;;10.90;99.90;;;;;;4994450;28;20080;-82
2023/02/21 15:18:59;;;;;;;2.83;2.22;;;10.90;99.90;;;;;;4995972;28;20053;-82
2023/02/21 15:21:25;;;;;;;2.92;2.25;;;10.90;99.90;;;;;;4993426;28;20506;-82
2023/02/21 15:24:01;;;;;;;2.97;2.15;;;10.90;99.90;;;;;;4981999;28;20400;-83
2023/02/21 15:26:30;;;;;;;2.85;2.17;;;10.80;99.90;;;;;;4997312;28;20063;-83
2023/02/21 15:29:10;;;;;;;2.75;2.20;;;10.80;99.90;;;;;;4970531;28;20706;-82
2023/02/21 15:31:47;;;;;;;3.08;2.38;;;10.80;99.90;;;;;;4979482;28;20053;-81
2023/02/21 15:34:44;;;;;;;3.33;2.55;;;10.70;99.90;;;;;;4983285;28;20041;-85
2023/02/21 15:37:24;;;;;;;3.20;2.42;;;10.60;99.90;;;;;;4998002;28;20735;-82
2023/02/21 15:39:57;;;;;;;4.32;2.65;;;10.50;99.90;;;;;;4990703;28;20049;-83
2023/02/21 15:42:24;;;;;;;2.83;1.92;;;10.40;99.90;;;;;;4996054;28;20101;-82